Time;durP1;ratioP1;P1;durP2;ratioP2;P2;SDS_P1;SDS_P2;PMS_P1;PMS_P2;Temp;Humidity;BMP_temperature;BMP_pressure;BME280_temperature;BME280_humidity;BME280_pressure;Samples;Min_cycle;Max_cycle;Signal;HPM_P1;HPM_P2
2021/01/26 00:01:09;;;;;;;3.87;2.10;;;22.90;30.20;;;;;;5088498;28;20202;-33
2021/01/26 00:03:35;;;;;;;4.93;2.10;;;22.90;30.10;;;;;;5091532;28;20208;-37
2021/01/26 00:06:01;;;;;;;2.90;1.80;;;23.00;30.20;;;;;;5093869;28;20210;-35
2021/01/26 00:08:27;;;;;;;4.97;2.00;;;23.00;30.20;;;;;;5093103;28;20763;-37
2021/01/26 00:10:53;;;;;;;2.67;1.77;;;23.00;30.20;;;;;;5094515;28;20195;-33
2021/01/26 00:13:19;;;;;;;5.23;2.00;;;23.00;30.20;;;;;;5093167;28;20252;-35
2021/01/26 00:15:45;;;;;;;2.77;1.97;;;23.00;30.90;;;;;;5093014;28;20217;-33
2021/01/26 00:18:11;;;;;;;3.63;2.17;;;23.00;30.90;;;;;;5092011;28;20223;-32
2021/01/26 00:20:37;;;;;;;2.77;1.97;;;23.00;30.80;;;;;;5093442;28;20213;-38
2021/01/26 00:23:03;;;;;;;3.63;2.30;;;23.00;30.60;;;;;;5093441;28;20566;-36
2021/01/26 00:25:29;;;;;;;4.53;2.00;;;23.00;30.40;;;;;;5092808;28;20214;-35
2021/01/26 00:27:54;;;;;;;2.87;1.70;;;23.00;30.20;;;;;;5092702;28;20231;-35
2021/01/26 00:30:20;;;;;;;3.17;1.73;;;23.10;30.10;;;;;;5092663;28;20203;-35
2021/01/26 00:32:46;;;;;;;2.40;1.80;;;23.10;30.00;;;;;;5094475;28;20212;-33
2021/01/26 00:35:12;;;;;;;3.70;1.73;;;23.10;30.00;;;;;;5091976;28;20577;-35
2021/01/26 00:37:38;;;;;;;4.07;1.70;;;23.10;30.00;;;;;;5092308;28;20729;-32
2021/01/26 00:40:04;;;;;;;3.33;1.80;;;23.10;30.00;;;;;;5093355;28;20231;-33
2021/01/26 00:42:30;;;;;;;4.33;1.90;;;23.10;30.00;;;;;;5094229;28;20214;-36
2021/01/26 00:44:56;;;;;;;4.67;1.90;;;23.10;30.50;;;;;;5094130;28;20193;-36
2021/01/26 00:47:22;;;;;;;2.67;1.90;;;23.10;30.00;;;;;;5092912;28;20240;-33
2021/01/26 00:49:48;;;;;;;3.37;2.10;;;23.10;30.00;;;;;;5092504;28;20671;-33
2021/01/26 00:52:13;;;;;;;2.60;1.90;;;23.10;30.00;;;;;;5086701;28;20204;-36
2021/01/26 00:54:39;;;;;;;3.93;2.07;;;23.00;30.00;;;;;;5089250;28;20214;-34
2021/01/26 00:57:05;;;;;;;2.37;1.50;;;23.00;30.00;;;;;;5093219;28;20224;-32
2021/01/26 00:59:31;;;;;;;1.87;1.50;;;23.00;30.00;;;;;;5093251;28;20254;-34
2021/01/26 01:01:57;;;;;;;2.97;1.87;;;23.00;30.00;;;;;;5092857;28;20659;-37
2021/01/26 01:04:23;;;;;;;2.13;1.60;;;23.00;30.00;;;;;;5094306;28;20208;-33
2021/01/26 01:06:49;;;;;;;3.60;1.70;;;23.00;30.20;;;;;;5092138;28;20227;-32
2021/01/26 01:09:15;;;;;;;2.33;1.73;;;23.00;30.20;;;;;;5089851;28;20210;-37
2021/01/26 01:11:41;;;;;;;3.77;1.83;;;22.90;30.20;;;;;;5092832;28;20211;-36
2021/01/26 01:14:07;;;;;;;1.80;1.43;;;22.90;30.40;;;;;;5094071;28;20207;-38
2021/01/26 01:16:33;;;;;;;2.10;1.70;;;23.00;30.50;;;;;;5093147;28;20224;-34
2021/01/26 01:18:59;;;;;;;2.87;1.63;;;23.00;30.30;;;;;;5094046;28;20227;-32
2021/01/26 01:21:25;;;;;;;2.47;1.67;;;23.00;30.40;;;;;;5092220;28;20692;-36
2021/01/26 01:23:51;;;;;;;3.83;1.70;;;23.00;30.40;;;;;;5093719;28;20199;-36
2021/01/26 01:26:16;;;;;;;1.67;1.53;;;23.00;30.40;;;;;;5087401;28;20228;-35
2021/01/26 01:28:42;;;;;;;2.10;1.53;;;23.00;30.40;;;;;;5092659;28;20211;-34
2021/01/26 01:31:08;;;;;;;2.17;1.33;;;23.00;30.20;;;;;;5094146;28;20202;-36
2021/01/26 01:33:34;;;;;;;2.00;1.40;;;23.00;30.00;;;;;;5091743;28;20569;-36
2021/01/26 01:36:00;;;;;;;1.90;1.70;;;23.00;30.20;;;;;;5079891;28;20666;-34
2021/01/26 01:38:26;;;;;;;2.00;1.67;;;23.00;30.00;;;;;;5090142;28;20234;-33
2021/01/26 01:40:52;;;;;;;1.70;1.40;;;23.00;30.00;;;;;;5093732;28;20207;-34
2021/01/26 01:43:18;;;;;;;2.03;1.70;;;23.00;30.00;;;;;;5084128;28;20208;-36
2021/01/26 01:45:44;;;;;;;1.63;1.40;;;23.00;29.90;;;;;;5081121;28;20227;-37
2021/01/26 01:48:10;;;;;;;3.83;1.40;;;23.00;30.00;;;;;;5084376;28;20684;-37
2021/01/26 01:50:36;;;;;;;1.83;1.70;;;23.00;29.90;;;;;;5085076;28;20207;-37
2021/01/26 01:53:01;;;;;;;1.80;1.40;;;23.00;29.90;;;;;;5091306;28;20211;-38
2021/01/26 01:55:27;;;;;;;2.87;1.57;;;23.00;29.80;;;;;;5091507;28;20228;-38
2021/01/26 01:57:53;;;;;;;2.03;1.43;;;23.00;29.80;;;;;;5091935;28;20225;-36
2021/01/26 02:00:19;;;;;;;1.73;1.50;;;23.00;29.90;;;;;;5085450;28;20593;-35
2021/01/26 02:02:45;;;;;;;3.10;1.40;;;23.00;29.90;;;;;;5087166;28;20666;-37
2021/01/26 02:05:11;;;;;;;1.83;1.40;;;23.00;29.90;;;;;;5092453;28;20691;-33
2021/01/26 02:07:37;;;;;;;1.63;1.50;;;23.00;29.90;;;;;;5092563;28;20580;-37
2021/01/26 02:10:03;;;;;;;1.93;1.70;;;22.90;29.90;;;;;;5091996;28;20211;-34
2021/01/26 02:12:29;;;;;;;1.77;1.60;;;22.90;30.00;;;;;;5091364;28;20260;-35
2021/01/26 02:14:55;;;;;;;2.37;1.57;;;22.90;30.00;;;;;;5091634;28;20233;-36
2021/01/26 02:17:20;;;;;;;1.50;1.40;;;22.90;30.00;;;;;;5091901;28;20228;-33
2021/01/26 02:19:46;;;;;;;2.90;1.60;;;22.90;30.10;;;;;;5091803;28;20635;-35
2021/01/26 02:22:12;;;;;;;2.77;1.97;;;22.90;30.20;;;;;;5090934;28;20206;-37
2021/01/26 02:24:38;;;;;;;2.73;1.83;;;22.90;30.20;;;;;;5091172;28;20195;-34
2021/01/26 02:27:04;;;;;;;3.63;1.60;;;22.90;30.20;;;;;;5092174;28;20234;-37
2021/01/26 02:29:30;;;;;;;2.87;1.60;;;22.90;30.00;;;;;;5074118;28;20224;-33
2021/01/26 02:31:56;;;;;;;1.83;1.43;;;22.90;30.00;;;;;;5091906;28;20204;-33
2021/01/26 02:34:22;;;;;;;1.43;1.30;;;22.90;29.90;;;;;;5085107;28;20203;-35
2021/01/26 02:36:48;;;;;;;1.50;1.40;;;22.90;29.90;;;;;;5089386;28;20587;-38
2021/01/26 02:39:14;;;;;;;1.53;1.43;;;22.90;30.70;;;;;;5090959;28;20227;-31
2021/01/26 02:41:40;;;;;;;1.77;1.63;;;22.90;30.00;;;;;;5089635;28;20226;-32
2021/01/26 02:44:06;;;;;;;1.40;1.30;;;22.90;30.00;;;;;;5091535;28;20220;-35
2021/01/26 02:46:31;;;;;;;1.50;1.40;;;23.00;30.00;;;;;;5090119;28;20238;-34
2021/01/26 02:48:57;;;;;;;2.30;1.50;;;23.00;30.00;;;;;;5091799;28;20535;-35
2021/01/26 02:51:23;;;;;;;1.90;1.37;;;23.00;29.90;;;;;;5082447;28;20212;-35
2021/01/26 02:53:49;;;;;;;3.83;1.60;;;23.00;29.80;;;;;;5090895;28;20208;-36
2021/01/26 02:56:15;;;;;;;1.63;1.30;;;22.90;29.70;;;;;;5090175;28;20219;-34
2021/01/26 02:58:41;;;;;;;1.53;1.23;;;23.00;29.80;;;;;;5090659;28;20238;-34
2021/01/26 03:01:07;;;;;;;1.67;1.57;;;23.00;29.80;;;;;;5090733;28;20208;-39
2021/01/26 03:03:33;;;;;;;1.50;1.40;;;23.00;29.70;;;;;;5090842;28;20214;-37
2021/01/26 03:05:59;;;;;;;1.53;1.43;;;23.00;29.80;;;;;;5090527;28;20235;-38
2021/01/26 03:08:25;;;;;;;1.47;1.10;;;22.90;29.70;;;;;;5089932;28;20194;-31
2021/01/26 03:10:50;;;;;;;1.50;1.40;;;22.90;29.70;;;;;;5090949;28;20214;-35
2021/01/26 03:13:16;;;;;;;2.17;1.60;;;22.90;29.90;;;;;;5090687;28;20203;-37
2021/01/26 03:15:42;;;;;;;1.60;1.50;;;22.80;29.90;;;;;;5090641;28;20652;-35
2021/01/26 03:18:08;;;;;;;2.13;1.47;;;22.80;29.90;;;;;;5090899;28;20206;-38
2021/01/26 03:20:34;;;;;;;1.63;1.40;;;22.80;29.80;;;;;;5091131;28;20231;-35
2021/01/26 03:23:00;;;;;;;1.77;1.67;;;22.90;30.00;;;;;;5090100;28;20210;-37
2021/01/26 03:25:26;;;;;;;2.53;1.60;;;22.90;30.00;;;;;;5087721;28;20648;-34
2021/01/26 03:27:52;;;;;;;2.33;1.40;;;22.90;30.00;;;;;;5091511;28;20234;-39
2021/01/26 03:30:18;;;;;;;1.70;1.30;;;22.90;30.00;;;;;;5090432;28;20212;-36
2021/01/26 03:32:44;;;;;;;1.50;1.40;;;22.80;30.00;;;;;;5091029;28;20218;-34
2021/01/26 03:35:10;;;;;;;1.93;1.60;;;22.90;30.00;;;;;;5087431;28;20236;-36
2021/01/26 03:37:35;;;;;;;2.87;1.30;;;22.80;29.80;;;;;;5090144;28;20250;-32
2021/01/26 03:40:01;;;;;;;2.17;1.50;;;22.80;29.90;;;;;;5090275;28;20593;-34
2021/01/26 03:42:27;;;;;;;1.77;1.63;;;22.80;30.50;;;;;;5085584;28;20208;-37
2021/01/26 03:44:53;;;;;;;1.93;1.30;;;22.80;29.90;;;;;;5090507;28;20321;-38
2021/01/26 03:47:19;;;;;;;1.70;1.40;;;22.80;29.90;;;;;;5091094;28;20221;-33
2021/01/26 03:49:45;;;;;;;2.00;1.30;;;22.90;29.90;;;;;;5086759;28;20255;-35
2021/01/26 03:52:11;;;;;;;1.40;1.17;;;22.90;30.30;;;;;;5090026;28;20616;-36
2021/01/26 03:54:37;;;;;;;1.50;1.40;;;22.90;29.80;;;;;;5090134;28;20208;-35
2021/01/26 03:57:03;;;;;;;1.40;1.30;;;22.90;29.70;;;;;;5091127;28;20286;-34
2021/01/26 03:59:30;;;;;;;1.37;1.20;;;22.90;29.70;;;;;;5076240;28;20232;-36
2021/01/26 04:01:56;;;;;;;1.70;1.50;;;22.90;29.70;;;;;;5089356;28;20230;-34
2021/01/26 04:04:21;;;;;;;1.37;1.27;;;22.90;29.80;;;;;;5091498;28;20216;-35
2021/01/26 04:06:47;;;;;;;1.67;1.43;;;22.90;29.80;;;;;;5090053;28;20273;-35
2021/01/26 04:09:13;;;;;;;2.03;1.60;;;22.90;29.80;;;;;;5090198;28;20212;-36
2021/01/26 04:11:39;;;;;;;1.57;1.30;;;22.90;29.80;;;;;;5091076;28;20609;-33
2021/01/26 04:14:05;;;;;;;1.90;1.70;;;22.80;29.70;;;;;;5090613;28;20195;-35
2021/01/26 04:16:31;;;;;;;2.10;1.53;;;22.80;29.70;;;;;;5080440;28;20289;-36
2021/01/26 04:18:57;;;;;;;1.50;1.40;;;22.80;29.80;;;;;;5090344;28;20598;-34
2021/01/26 04:21:23;;;;;;;1.43;1.30;;;22.80;29.90;;;;;;5090560;28;20244;-36
2021/01/26 04:23:49;;;;;;;1.63;1.37;;;22.90;29.90;;;;;;5089789;28;20211;-35
2021/01/26 04:26:15;;;;;;;1.50;1.40;;;22.90;30.00;;;;;;5090096;28;20219;-32
2021/01/26 04:28:41;;;;;;;1.93;1.60;;;22.90;30.00;;;;;;5090241;28;20198;-33
2021/01/26 04:31:06;;;;;;;1.50;1.33;;;22.90;30.00;;;;;;5091239;28;20608;-36
2021/01/26 04:33:32;;;;;;;1.50;1.40;;;22.90;30.00;;;;;;5088869;28;20214;-32
2021/01/26 04:35:58;;;;;;;1.40;1.30;;;22.90;30.00;;;;;;5089795;28;20223;-34
2021/01/26 04:38:24;;;;;;;1.50;1.40;;;22.90;29.90;;;;;;5103903;22;20234;-41
2021/01/26 04:40:50;;;;;;;1.77;1.50;;;22.90;30.00;;;;;;5089022;28;20203;-41
2021/01/26 04:43:16;;;;;;;2.80;1.30;;;22.80;30.00;;;;;;5094336;28;20567;-39
2021/01/26 04:45:42;;;;;;;2.27;1.40;;;22.80;30.40;;;;;;5093576;28;20224;-43
2021/01/26 04:48:08;;;;;;;1.93;1.40;;;22.90;30.40;;;;;;5075817;28;20210;-42
2021/01/26 04:50:34;;;;;;;1.30;1.20;;;22.90;30.30;;;;;;5075255;28;20211;-47
2021/01/26 04:53:00;;;;;;;1.50;1.40;;;22.90;30.20;;;;;;5089312;28;20204;-37
2021/01/26 04:55:25;;;;;;;1.40;1.30;;;22.90;30.10;;;;;;5072318;28;20727;-40
2021/01/26 04:57:51;;;;;;;2.77;1.40;;;22.90;30.00;;;;;;5073370;28;20294;-43
2021/01/26 05:00:17;;;;;;;1.50;1.40;;;23.00;30.00;;;;;;5092769;28;20239;-43
2021/01/26 05:02:43;;;;;;;2.07;1.30;;;23.00;30.00;;;;;;5074624;28;20274;-38
2021/01/26 05:05:09;;;;;;;1.13;1.10;;;23.00;30.00;;;;;;5074404;28;20679;-40
2021/01/26 05:07:35;;;;;;;1.87;1.40;;;23.00;30.00;;;;;;5072595;28;20211;-40
2021/01/26 05:10:01;;;;;;;1.53;1.43;;;23.00;30.00;;;;;;5089569;28;20202;-34
2021/01/26 05:12:27;;;;;;;3.00;1.20;;;22.90;30.00;;;;;;5084053;28;20206;-30
2021/01/26 05:14:53;;;;;;;1.50;1.40;;;22.90;30.00;;;;;;5082430;28;20203;-27
2021/01/26 05:17:19;;;;;;;1.40;1.27;;;22.80;29.80;;;;;;5079137;28;20243;-29
2021/01/26 05:19:45;;;;;;;1.73;1.30;;;22.80;29.90;;;;;;5079631;28;20223;-44
2021/01/26 05:22:10;;;;;;;1.40;1.30;;;22.80;29.80;;;;;;5085104;28;20199;-36
2021/01/26 05:24:36;;;;;;;1.87;1.40;;;22.80;29.90;;;;;;5070490;28;20214;-38
2021/01/26 05:27:02;;;;;;;1.30;1.20;;;22.80;30.00;;;;;;5068950;28;20219;-35
2021/01/26 05:29:28;;;;;;;3.50;1.47;;;22.80;29.90;;;;;;5073205;28;20231;-33
2021/01/26 05:31:54;;;;;;;1.57;1.40;;;22.80;30.00;;;;;;5072935;28;20205;-44
2021/01/26 05:34:20;;;;;;;1.67;1.40;;;22.80;30.00;;;;;;5064716;28;20429;-39
2021/01/26 05:36:46;;;;;;;1.40;1.30;;;22.80;30.00;;;;;;5073384;28;20689;-32
2021/01/26 05:39:12;;;;;;;1.57;1.40;;;22.80;30.00;;;;;;5073571;28;20226;-45
2021/01/26 05:41:38;;;;;;;2.60;1.40;;;22.80;30.00;;;;;;5072403;28;20262;-43
2021/01/26 05:44:04;;;;;;;2.13;1.30;;;22.80;29.90;;;;;;5078816;28;20216;-30
2021/01/26 05:46:30;;;;;;;1.33;1.20;;;22.80;29.90;;;;;;5073252;28;20289;-42
2021/01/26 05:48:56;;;;;;;1.20;1.10;;;22.80;30.00;;;;;;5071866;28;20657;-41
2021/01/26 05:51:22;;;;;;;1.30;1.20;;;22.80;30.00;;;;;;5066029;28;20581;-37
2021/01/26 05:53:48;;;;;;;1.10;1.10;;;22.80;30.00;;;;;;5073327;28;20679;-44
2021/01/26 05:56:14;;;;;;;1.57;1.20;;;22.90;30.00;;;;;;5072492;28;20227;-34
2021/01/26 05:58:40;;;;;;;1.23;1.13;;;22.90;30.00;;;;;;5067964;28;20212;-36
2021/01/26 06:01:05;;;;;;;1.30;1.20;;;22.90;30.00;;;;;;5052342;28;20207;-39
2021/01/26 06:03:31;;;;;;;2.47;1.10;;;22.90;30.00;;;;;;5084192;28;20572;-40
2021/01/26 06:05:57;;;;;;;1.60;1.37;;;22.90;30.00;;;;;;5081822;28;20235;-47
2021/01/26 06:08:23;;;;;;;1.77;1.30;;;22.90;29.90;;;;;;5088142;28;20215;-40
2021/01/26 06:10:49;;;;;;;1.83;1.20;;;22.90;29.90;;;;;;5092465;28;20208;-44
2021/01/26 06:13:15;;;;;;;2.43;1.37;;;22.90;30.20;;;;;;5079583;28;20195;-46
2021/01/26 06:15:41;;;;;;;1.37;1.27;;;22.90;30.30;;;;;;5082149;28;20592;-33
2021/01/26 06:18:07;;;;;;;1.30;1.17;;;22.80;30.20;;;;;;5088311;28;20215;-33
2021/01/26 06:20:35;;;;;;;2.07;1.20;;;22.80;30.20;;;;;;5082247;28;20230;-44
2021/01/26 06:23:01;;;;;;;2.20;1.30;;;22.80;29.80;;;;;;5078699;28;20195;-36
2021/01/26 06:25:27;;;;;;;1.30;1.20;;;22.80;30.00;;;;;;5072814;28;20235;-34
2021/01/26 06:27:53;;;;;;;1.40;1.30;;;22.80;30.00;;;;;;5078893;28;20209;-37
2021/01/26 06:30:19;;;;;;;1.63;1.40;;;22.80;30.00;;;;;;5072758;28;20191;-43
2021/01/26 06:32:45;;;;;;;1.40;1.20;;;22.70;30.00;;;;;;5070223;28;20570;-39
2021/01/26 06:35:10;;;;;;;1.50;1.10;;;22.70;29.90;;;;;;5069730;28;20229;-34
2021/01/26 06:37:36;;;;;;;1.53;1.43;;;22.70;30.00;;;;;;5060464;28;20220;-36
2021/01/26 06:40:04;;;;;;;3.13;1.50;;;22.80;30.70;;;;;;5072323;28;20246;-40
2021/01/26 06:42:30;;;;;;;3.37;1.60;;;22.70;31.30;;;;;;5071913;28;20209;-39
2021/01/26 06:44:56;;;;;;;1.50;1.30;;;22.70;31.40;;;;;;5066305;28;20669;-42
2021/01/26 06:47:22;;;;;;;2.47;1.47;;;22.80;31.30;;;;;;5075100;28;20717;-34
2021/01/26 06:49:48;;;;;;;2.23;1.30;;;22.70;30.50;;;;;;5076692;28;20207;-47
2021/01/26 06:52:14;;;;;;;2.80;1.30;;;22.80;30.20;;;;;;5074301;28;20207;-43
2021/01/26 06:54:40;;;;;;;3.60;1.70;;;22.80;30.20;;;;;;5070855;28;20212;-40
2021/01/26 06:57:06;;;;;;;2.47;1.43;;;22.80;30.40;;;;;;5071164;28;20226;-39
2021/01/26 06:59:32;;;;;;;2.00;1.30;;;22.80;30.30;;;;;;5071182;28;20687;-42
2021/01/26 07:01:57;;;;;;;2.83;1.30;;;22.80;30.20;;;;;;5069483;28;20204;-38
2021/01/26 07:04:23;;;;;;;1.83;1.50;;;22.80;30.30;;;;;;5074303;28;20207;-37
2021/01/26 07:06:49;;;;;;;3.70;1.60;;;22.80;30.30;;;;;;5074466;28;20228;-46
2021/01/26 07:09:15;;;;;;;3.17;1.40;;;22.80;30.20;;;;;;5072075;28;20227;-43
2021/01/26 07:11:41;;;;;;;5.63;1.67;;;22.80;30.80;;;;;;5068734;28;20669;-39
2021/01/26 07:14:07;;;;;;;4.20;1.30;;;22.80;30.50;;;;;;5066051;28;20215;-40
2021/01/26 07:16:33;;;;;;;3.23;1.30;;;22.80;31.30;;;;;;5055108;28;20223;-40
2021/01/26 07:18:59;;;;;;;4.67;1.57;;;22.80;31.70;;;;;;5067073;28;20230;-35
2021/01/26 07:21:25;;;;;;;3.10;1.47;;;22.80;31.90;;;;;;5067574;28;20201;-46
2021/01/26 07:23:51;;;;;;;2.57;1.60;;;22.80;32.20;;;;;;5065826;28;20558;-33
2021/01/26 07:26:17;;;;;;;5.77;1.70;;;22.80;32.00;;;;;;5062098;28;20230;-41
2021/01/26 07:28:42;;;;;;;1.93;1.40;;;22.80;32.10;;;;;;5055665;28;20205;-44
2021/01/26 07:31:08;;;;;;;5.17;1.53;;;22.70;31.80;;;;;;5060852;28;20212;-49
2021/01/26 07:33:34;;;;;;;2.73;1.80;;;22.80;32.00;;;;;;5067567;28;20260;-40
2021/01/26 07:36:00;;;;;;;1.77;1.30;;;22.80;30.80;;;;;;5053121;28;20225;-38
2021/01/26 07:38:26;;;;;;;4.47;1.90;;;22.80;30.80;;;;;;5062955;28;20258;-39
2021/01/26 07:40:52;;;;;;;3.67;2.53;;;22.80;31.20;;;;;;5060971;28;20704;-39
2021/01/26 07:43:18;;;;;;;2.90;1.57;;;22.80;31.60;;;;;;5059197;28;20215;-42
2021/01/26 07:45:44;;;;;;;1.87;1.53;;;22.90;31.80;;;;;;5061116;28;20232;-35
2021/01/26 07:48:10;;;;;;;3.33;1.50;;;23.00;31.30;;;;;;5064293;28;20270;-32
2021/01/26 07:50:36;;;;;;;4.93;1.77;;;23.00;31.90;;;;;;5055458;28;20206;-42
2021/01/26 07:53:01;;;;;;;5.50;1.60;;;23.00;31.80;;;;;;5065159;28;20657;-47
2021/01/26 07:55:27;;;;;;;8.60;1.57;;;23.10;31.30;;;;;;5061497;28;20282;-41
2021/01/26 07:57:53;;;;;;;6.30;1.77;;;23.10;32.00;;;;;;5052727;28;20200;-42
2021/01/26 08:00:19;;;;;;;4.27;1.63;;;23.10;31.50;;;;;;5071144;28;20236;-36
2021/01/26 08:02:45;;;;;;;3.87;1.83;;;23.10;31.70;;;;;;5056862;28;20254;-40
2021/01/26 08:05:11;;;;;;;4.43;1.70;;;23.10;31.60;;;;;;5064663;28;20723;-46
2021/01/26 08:07:37;;;;;;;2.90;1.47;;;23.10;31.60;;;;;;5060058;28;20209;-50
2021/01/26 08:10:03;;;;;;;2.43;1.37;;;23.10;31.60;;;;;;5069390;28;20211;-39
2021/01/26 08:12:29;;;;;;;6.23;1.60;;;23.10;31.80;;;;;;5068325;28;20205;-45
2021/01/26 08:14:55;;;;;;;4.50;1.90;;;23.20;31.90;;;;;;5057019;28;20229;-48
2021/01/26 08:17:20;;;;;;;5.73;1.57;;;23.20;32.10;;;;;;5058369;28;20657;-42
2021/01/26 08:19:46;;;;;;;2.40;1.70;;;23.10;32.60;;;;;;5068809;28;20247;-42
2021/01/26 08:22:12;;;;;;;2.70;1.60;;;23.10;32.00;;;;;;5068885;28;20201;-41
2021/01/26 08:24:39;;;;;;;3.73;2.13;;;23.10;32.00;;;;;;5071566;28;20247;-45
2021/01/26 08:27:05;;;;;;;3.17;1.97;;;23.10;32.10;;;;;;5069769;28;20571;-34
2021/01/26 08:29:31;;;;;;;2.30;1.63;;;23.10;32.40;;;;;;5063971;28;20213;-37
2021/01/26 08:31:57;;;;;;;1.87;1.40;;;23.10;32.40;;;;;;5066611;28;20223;-43
2021/01/26 08:34:23;;;;;;;3.37;1.73;;;23.10;33.00;;;;;;5073534;28;20208;-36
2021/01/26 08:36:49;;;;;;;6.23;1.70;;;23.10;33.10;;;;;;5056536;28;20209;-33
2021/01/26 08:39:15;;;;;;;1.70;1.50;;;23.10;33.50;;;;;;5067752;28;20238;-34
2021/01/26 08:41:41;;;;;;;3.37;1.60;;;23.10;33.30;;;;;;5064029;28;20269;-42
2021/01/26 08:44:06;;;;;;;2.70;1.60;;;23.10;32.40;;;;;;5073872;28;20672;-37
2021/01/26 08:46:32;;;;;;;2.87;1.70;;;23.10;32.80;;;;;;5072326;28;20204;-42
2021/01/26 08:48:58;;;;;;;2.97;1.53;;;23.10;32.40;;;;;;5066255;28;20257;-44
2021/01/26 08:51:24;;;;;;;3.30;1.80;;;23.10;32.70;;;;;;5062820;28;20201;-42
2021/01/26 08:53:52;;;;;;;2.93;1.67;;;23.00;33.00;;;;;;5057766;28;20213;-38
2021/01/26 08:56:17;;;;;;;4.57;1.90;;;23.00;33.50;;;;;;5066013;28;20546;-39
2021/01/26 08:58:43;;;;;;;2.43;1.67;;;22.90;33.60;;;;;;5068409;28;20201;-46
2021/01/26 09:01:09;;;;;;;4.37;1.90;;;22.80;33.50;;;;;;5067087;28;20205;-40
2021/01/26 09:03:35;;;;;;;5.10;1.80;;;22.80;32.50;;;;;;5053526;28;20208;-37
2021/01/26 09:06:01;;;;;;;3.53;1.67;;;22.80;33.30;;;;;;5065591;28;20228;-40
2021/01/26 09:08:27;;;;;;;3.97;1.93;;;22.80;33.20;;;;;;5073140;28;20326;-37
2021/01/26 09:10:53;;;;;;;1.97;1.63;;;22.70;34.10;;;;;;5059289;28;20649;-44
2021/01/26 09:13:19;;;;;;;4.90;1.83;;;22.70;33.10;;;;;;5068503;28;20201;-37
2021/01/26 09:15:45;;;;;;;2.77;1.70;;;22.70;32.60;;;;;;5064853;28;20228;-42
2021/01/26 09:18:11;;;;;;;2.20;1.73;;;22.70;32.80;;;;;;5054277;28;20225;-33
2021/01/26 09:20:37;;;;;;;3.03;2.03;;;22.80;32.90;;;;;;5056701;28;20364;-38
2021/01/26 09:23:03;;;;;;;2.60;1.50;;;22.80;33.20;;;;;;5068980;28;20609;-38
2021/01/26 09:25:29;;;;;;;4.60;2.10;;;22.70;32.80;;;;;;5056302;28;20240;-40
2021/01/26 09:27:55;;;;;;;3.20;1.83;;;22.80;33.40;;;;;;5070213;28;20196;-36
2021/01/26 09:30:21;;;;;;;3.03;2.07;;;22.80;33.40;;;;;;5071497;28;20220;-48
2021/01/26 09:32:47;;;;;;;3.70;1.87;;;22.90;33.40;;;;;;5068292;28;20205;-40
2021/01/26 09:35:13;;;;;;;4.07;2.10;;;22.90;33.40;;;;;;5069971;28;20294;-34
2021/01/26 09:37:38;;;;;;;4.67;1.60;;;22.90;33.10;;;;;;5069415;28;20208;-29
2021/01/26 09:40:04;;;;;;;2.60;1.60;;;22.90;32.90;;;;;;5065829;28;20225;-32
2021/01/26 09:42:30;;;;;;;3.60;2.00;;;22.90;32.30;;;;;;5066907;28;20630;-38
2021/01/26 09:44:56;;;;;;;3.90;1.80;;;22.90;32.20;;;;;;5073334;28;20224;-39
2021/01/26 09:47:22;;;;;;;3.87;1.80;;;22.90;32.20;;;;;;5069310;28;20208;-42
2021/01/26 09:49:48;;;;;;;4.87;2.17;;;22.90;32.10;;;;;;5059022;28;20201;-34
2021/01/26 09:52:14;;;;;;;3.80;1.80;;;22.90;32.00;;;;;;5057209;28;20204;-46
2021/01/26 09:54:40;;;;;;;4.88;2.08;;;22.90;32.20;;;;;;5070831;28;20563;-41
2021/01/26 09:57:06;;;;;;;2.93;2.00;;;22.70;32.00;;;;;;5060101;28;20197;-38
2021/01/26 09:59:34;;;;;;;4.72;2.03;;;22.80;32.10;;;;;;5053554;28;20313;-48
2021/01/26 10:02:00;;;;;;;4.80;1.80;;;22.90;32.90;;;;;;5058979;28;20233;-41
2021/01/26 10:04:26;;;;;;;4.07;2.30;;;23.00;32.30;;;;;;5064864;28;20212;-34
2021/01/26 10:06:52;;;;;;;4.67;2.23;;;23.00;32.30;;;;;;5061055;28;20255;-39
2021/01/26 10:09:18;;;;;;;4.93;2.17;;;22.80;32.80;;;;;;5069130;28;20589;-43
2021/01/26 10:11:44;;;;;;;5.53;1.97;;;22.80;33.30;;;;;;5071535;28;20227;-47
2021/01/26 10:14:09;;;;;;;4.43;2.00;;;22.70;33.40;;;;;;5057985;28;20701;-45
2021/01/26 10:16:35;;;;;;;3.87;2.00;;;22.60;32.90;;;;;;5068158;28;20209;-37
2021/01/26 10:19:01;;;;;;;4.83;2.33;;;22.60;33.60;;;;;;5065641;28;20261;-32
2021/01/26 10:21:27;;;;;;;3.97;2.10;;;22.70;33.50;;;;;;5065531;28;20205;-40
2021/01/26 10:23:53;;;;;;;2.67;2.00;;;22.70;33.40;;;;;;5052740;28;20225;-37
2021/01/26 10:26:19;;;;;;;3.63;2.33;;;22.70;33.20;;;;;;5055973;28;20204;-46
2021/01/26 10:28:45;;;;;;;4.77;1.93;;;22.70;32.70;;;;;;5072481;28;20204;-46
2021/01/26 10:31:11;;;;;;;3.30;2.10;;;22.80;33.30;;;;;;5072483;28;20651;-42
2021/01/26 10:33:37;;;;;;;2.87;1.83;;;22.70;32.30;;;;;;5071773;28;20227;-28
2021/01/26 10:36:03;;;;;;;3.53;1.97;;;22.70;32.50;;;;;;5061658;28;20217;-38
2021/01/26 10:38:29;;;;;;;2.37;1.77;;;22.80;32.10;;;;;;5025151;22;20236;-48
2021/01/26 10:40:55;;;;;;;3.40;2.03;;;22.80;32.10;;;;;;4970395;28;20230;-42
2021/01/26 10:43:21;;;;;;;3.40;1.60;;;22.80;32.20;;;;;;4969991;28;20675;-41
2021/01/26 10:45:47;;;;;;;3.73;1.80;;;22.90;32.90;;;;;;4970985;28;20247;-39
2021/01/26 10:48:13;;;;;;;2.63;1.70;;;22.90;32.20;;;;;;4953839;28;20208;-45
2021/01/26 10:50:39;;;;;;;2.93;1.50;;;23.00;32.30;;;;;;4933871;28;20209;-47
2021/01/26 10:53:04;;;;;;;3.57;1.80;;;23.10;32.40;;;;;;4936730;29;20204;-46
2021/01/26 10:55:30;;;;;;;4.17;1.70;;;23.10;32.40;;;;;;4949743;28;20229;-46
2021/01/26 10:57:56;;;;;;;4.50;1.67;;;23.10;32.40;;;;;;4932591;29;20549;-35
2021/01/26 11:00:23;;;;;;;2.70;1.80;;;23.10;32.80;;;;;;4938750;29;20677;-41
2021/01/26 11:02:49;;;;;;;5.40;1.87;;;23.00;33.00;;;;;;4951157;28;20658;-34
2021/01/26 11:05:15;;;;;;;2.23;1.43;;;23.00;32.80;;;;;;4935347;28;20224;-34
2021/01/26 11:07:41;;;;;;;7.90;1.80;;;23.00;32.90;;;;;;4932896;29;20310;-41
2021/01/26 11:10:07;;;;;;;2.93;1.80;;;23.00;32.30;;;;;;4935012;28;20225;-40
2021/01/26 11:12:33;;;;;;;2.97;1.70;;;22.80;32.40;;;;;;4953750;28;20251;-38
2021/01/26 11:14:59;;;;;;;1.87;1.30;;;22.80;32.70;;;;;;4970517;28;20597;-39
2021/01/26 11:17:25;;;;;;;5.63;1.93;;;22.80;32.70;;;;;;4960653;28;20559;-34
2021/01/26 11:19:51;;;;;;;3.17;1.80;;;22.90;32.80;;;;;;4950061;28;20240;-30
2021/01/26 11:22:17;;;;;;;3.33;1.90;;;22.80;32.80;;;;;;4936614;28;20216;-39
2021/01/26 11:24:43;;;;;;;2.07;1.60;;;22.80;33.10;;;;;;4938110;29;20233;-31
2021/01/26 11:27:09;;;;;;;3.13;1.53;;;22.80;33.00;;;;;;4941392;28;20261;-44
2021/01/26 11:29:35;;;;;;;2.37;1.60;;;22.80;32.40;;;;;;4940838;28;20204;-48
2021/01/26 11:32:01;;;;;;;2.13;1.60;;;22.70;32.40;;;;;;4940158;28;20206;-39
2021/01/26 11:34:27;;;;;;;2.50;1.67;;;22.70;32.40;;;;;;4933985;28;20329;-45
2021/01/26 11:36:53;;;;;;;2.57;1.53;;;22.70;32.40;;;;;;4934799;28;20208;-45
2021/01/26 11:39:19;;;;;;;3.20;1.77;;;22.80;32.40;;;;;;4944622;28;20266;-46
2021/01/26 11:41:45;;;;;;;2.27;1.63;;;22.80;32.10;;;;;;4943296;28;20212;-42
2021/01/26 11:44:11;;;;;;;3.07;1.90;;;22.80;32.10;;;;;;4937013;29;20314;-49
2021/01/26 11:46:37;;;;;;;1.87;1.47;;;22.80;32.20;;;;;;4945455;28;20601;-31
2021/01/26 11:49:03;;;;;;;1.53;1.43;;;22.80;32.10;;;;;;4946437;28;20217;-35
2021/01/26 11:51:29;;;;;;;1.50;1.40;;;22.80;31.90;;;;;;4949431;28;20211;-46
2021/01/26 11:53:54;;;;;;;2.33;1.60;;;22.90;32.20;;;;;;4952344;28;20225;-44
2021/01/26 11:56:22;;;;;;;2.87;1.90;;;22.90;31.70;;;;;;4950664;28;20202;-43
2021/01/26 11:58:48;;;;;;;2.27;1.47;;;22.90;31.60;;;;;;4935798;28;20264;-35
2021/01/26 12:01:14;;;;;;;2.90;2.10;;;22.90;31.40;;;;;;4941786;28;20239;-39
2021/01/26 12:03:40;;;;;;;1.77;1.30;;;22.90;31.50;;;;;;4939694;28;20223;-37
2021/01/26 12:06:06;;;;;;;1.40;1.30;;;22.90;31.60;;;;;;4949282;28;20252;-32
2021/01/26 12:08:32;;;;;;;2.20;1.50;;;22.90;31.90;;;;;;4944548;28;20213;-30
2021/01/26 12:10:58;;;;;;;1.77;1.57;;;22.90;32.20;;;;;;4945059;29;20205;-36
2021/01/26 12:13:23;;;;;;;2.03;1.50;;;22.90;32.20;;;;;;4943242;28;20274;-34
2021/01/26 12:15:49;;;;;;;3.43;1.37;;;22.80;32.10;;;;;;4940694;28;20219;-39
2021/01/26 12:18:15;;;;;;;3.53;1.90;;;22.80;32.10;;;;;;4945242;28;20247;-39
2021/01/26 12:20:41;;;;;;;2.27;1.80;;;22.80;32.60;;;;;;4944930;29;20231;-41
2021/01/26 12:23:07;;;;;;;2.60;1.60;;;22.70;32.50;;;;;;4945521;28;20241;-36
2021/01/26 12:25:33;;;;;;;2.63;1.83;;;22.70;33.80;;;;;;4948140;28;20541;-47
2021/01/26 12:27:59;;;;;;;3.30;1.67;;;22.70;33.90;;;;;;4937914;28;20213;-42
2021/01/26 12:30:25;;;;;;;4.03;1.83;;;22.70;34.60;;;;;;4949752;28;20209;-43
2021/01/26 12:32:51;;;;;;;3.60;2.03;;;22.70;34.80;;;;;;4951746;28;20208;-42
2021/01/26 12:35:17;;;;;;;3.53;1.83;;;22.70;35.50;;;;;;4950472;28;20220;-40
2021/01/26 12:37:43;;;;;;;3.53;2.00;;;22.70;34.10;;;;;;4938241;28;20221;-43
2021/01/26 12:40:09;;;;;;;3.37;2.10;;;22.80;35.50;;;;;;4943917;28;20255;-39